createdAt,value
2023-05-22T00:01:58.026Z,22.45
2023-05-22T00:04:31.499Z,20.02
2023-05-22T00:09:29.192Z,21.23
2023-05-22T00:11:58.238Z,21.88
2023-05-22T00:14:27.252Z,21.92
2023-05-22T00:16:57.873Z,24.77
2023-05-22T00:19:26.924Z,20.27
2023-05-22T00:21:56.098Z,23.95
2023-05-22T00:24:25.129Z,21.42
2023-05-22T00:26:54.146Z,27.35
2023-05-22T00:29:23.197Z,24.35
2023-05-22T00:31:52.224Z,26.23
2023-05-22T00:34:21.302Z,20.35
2023-05-22T00:36:50.257Z,19.75
2023-05-22T00:39:19.285Z,21.35
2023-05-22T00:41:48.494Z,21.98
2023-05-22T00:44:18.471Z,23.73
2023-05-22T00:46:47.544Z,20.55
2023-05-22T00:49:16.607Z,18.70
2023-05-22T00:51:45.606Z,20.80
2023-05-22T00:54:15.340Z,21.35
2023-05-22T00:56:44.437Z,18.52
2023-05-22T00:59:13.551Z,18.60
2023-05-22T01:01:44.601Z,17.90
2023-05-22T01:04:14.449Z,16.92
2023-05-22T01:06:43.474Z,19.30
2023-05-22T01:09:12.586Z,20.40
2023-05-22T01:11:55.644Z,18.48
2023-05-22T01:14:35.954Z,21.05
2023-05-22T01:17:24.212Z,18.95
2023-05-22T01:20:02.770Z,20.25
2023-05-22T01:22:51.840Z,20.30
2023-05-22T01:25:29.512Z,20.30
2023-05-22T01:28:30.560Z,17.52
2023-05-22T01:31:12.805Z,21.08
2023-05-22T01:33:45.614Z,16.65
2023-05-22T01:36:16.632Z,19.10
2023-05-22T01:38:45.852Z,20.63
2023-05-22T01:41:15.369Z,17.75
2023-05-22T01:43:44.470Z,15.85
2023-05-22T01:46:13.593Z,21.42
2023-05-22T01:48:42.960Z,21.08
2023-05-22T01:51:15.675Z,19.58
2023-05-22T01:53:45.145Z,18.60
2023-05-22T01:56:16.527Z,22.65
2023-05-22T01:58:54.904Z,15.82
2023-05-22T02:01:25.208Z,20.33
2023-05-22T02:03:58.160Z,19.10
2023-05-22T02:06:33.780Z,17.58
2023-05-22T02:09:03.813Z,19.85
2023-05-22T02:11:34.497Z,17.17
2023-05-22T02:14:03.777Z,15.20
2023-05-22T02:16:32.882Z,20.65
2023-05-22T02:19:08.002Z,14.93
2023-05-22T02:21:37.582Z,17.13
2023-05-22T02:24:06.825Z,15.52
2023-05-22T02:26:35.912Z,15.35
2023-05-22T02:29:05.121Z,16.83
2023-05-22T02:31:34.179Z,16.13
2023-05-22T02:34:03.264Z,15.18
2023-05-22T02:36:32.479Z,14.40
2023-05-22T02:39:02.057Z,15.80
2023-05-22T02:41:31.112Z,14.32
2023-05-22T02:44:00.207Z,14.02
2023-05-22T02:46:29.589Z,14.07
2023-05-22T02:49:01.405Z,15.45
2023-05-22T02:51:30.429Z,14.70
2023-05-22T02:53:59.444Z,14.48
2023-05-22T02:56:30.626Z,15.68
2023-05-22T02:58:59.634Z,13.98
2023-05-22T03:01:28.744Z,16.42
2023-05-22T03:03:59.031Z,13.10
2023-05-22T03:06:28.118Z,13.05
2023-05-22T03:08:57.285Z,14.85
2023-05-22T03:11:26.298Z,14.88
2023-05-22T03:13:55.270Z,15.18
2023-05-22T03:16:24.438Z,14.57
2023-05-22T03:18:56.878Z,11.60
2023-05-22T03:21:25.997Z,14.55
2023-05-22T03:23:55.020Z,13.48
2023-05-22T03:26:24.235Z,14.18
2023-05-22T03:28:53.356Z,14.38
2023-05-22T03:31:22.352Z,13.52
2023-05-22T03:33:51.421Z,14.52
2023-05-22T03:36:20.965Z,14.18
2023-05-22T03:38:50.086Z,12.70
2023-05-22T03:41:19.540Z,12.38
2023-05-22T03:43:48.578Z,12.77
2023-05-22T03:46:17.592Z,13.80
2023-05-22T03:48:46.707Z,11.32
2023-05-22T03:51:16.983Z,13.52
2023-05-22T03:53:47.272Z,13.20
2023-05-22T03:56:16.222Z,11.02
2023-05-22T03:58:45.236Z,14.07
2023-05-22T04:01:15.405Z,12.30
2023-05-22T04:03:44.403Z,10.45
2023-05-22T04:06:15.230Z,12.50
2023-05-22T04:08:44.185Z,13.20
2023-05-22T04:11:16.932Z,13.70
2023-05-22T04:13:46.484Z,13.43
2023-05-22T04:16:19.028Z,14.68
2023-05-22T04:19:29.815Z,14.23
2023-05-22T04:22:01.029Z,13.50
2023-05-22T04:24:30.699Z,12.88
2023-05-22T04:27:01.887Z,10.50
2023-05-22T04:29:31.746Z,13.02
2023-05-22T04:32:01.763Z,10.45
2023-05-22T04:34:31.785Z,12.70
2023-05-22T04:37:01.664Z,12.15
2023-05-22T04:39:31.357Z,11.15
2023-05-22T04:42:07.286Z,11.93
2023-05-22T04:44:36.973Z,11.77
2023-05-22T04:47:07.973Z,13.93
2023-05-22T04:49:37.949Z,14.25
2023-05-22T04:52:08.825Z,11.95
2023-05-22T04:54:38.444Z,10.35
2023-05-22T04:57:08.252Z,13.50
2023-05-22T04:59:42.916Z,12.70
2023-05-22T05:02:12.988Z,13.05
2023-05-22T05:04:42.888Z,12.82
2023-05-22T05:07:12.496Z,12.23
2023-05-22T05:09:42.208Z,14.05
2023-05-22T05:12:11.901Z,12.65
2023-05-22T05:14:41.557Z,11.02
2023-05-22T05:17:11.380Z,11.85
2023-05-22T05:19:41.294Z,12.48
2023-05-22T05:22:10.981Z,12.52
2023-05-22T05:24:40.542Z,12.23
2023-05-22T05:27:10.221Z,12.73
2023-05-22T05:29:39.907Z,14.63
2023-05-22T05:32:09.959Z,11.95
2023-05-22T05:34:39.682Z,13.50
2023-05-22T05:37:09.547Z,10.88
2023-05-22T05:39:39.152Z,12.10
2023-05-22T05:42:08.926Z,11.18
2023-05-22T05:44:38.668Z,10.98
2023-05-22T05:47:08.687Z,12.55
2023-05-22T05:49:38.353Z,13.50
2023-05-22T05:52:09.489Z,13.48
2023-05-22T05:54:39.153Z,11.85
2023-05-22T05:57:09.193Z,11.75
2023-05-22T05:59:38.853Z,11.20
2023-05-22T06:02:09.148Z,11.13
2023-05-22T06:04:39.160Z,12.35
2023-05-22T06:07:09.542Z,12.20
2023-05-22T06:09:39.794Z,10.57
2023-05-22T06:12:14.060Z,11.80
2023-05-22T06:14:43.919Z,10.77
2023-05-22T06:17:13.961Z,10.80
2023-05-22T06:19:43.846Z,12.63
2023-05-22T06:22:13.688Z,10.35
2023-05-22T06:24:43.403Z,11.75
2023-05-22T06:27:13.017Z,10.48
2023-05-22T06:29:42.751Z,10.50
2023-05-22T06:32:12.494Z,11.32
2023-05-22T06:34:42.234Z,11.75
2023-05-22T06:37:12.488Z,12.25
2023-05-22T06:39:42.641Z,11.70
2023-05-22T06:42:12.248Z,12.40
2023-05-22T06:44:41.910Z,11.57
2023-05-22T06:47:11.547Z,11.77
2023-05-22T06:49:41.179Z,10.00
2023-05-22T06:52:11.621Z,12.40
2023-05-22T06:54:44.437Z,11.68
2023-05-22T06:57:14.075Z,10.63
2023-05-22T06:59:43.768Z,9.77
2023-05-22T07:02:13.421Z,11.18
2023-05-22T07:04:43.272Z,12.30
2023-05-22T07:07:13.410Z,10.63
2023-05-22T07:09:43.126Z,10.15
2023-05-22T07:12:12.966Z,11.88
2023-05-22T07:14:42.619Z,12.07
2023-05-22T07:17:12.301Z,11.05
2023-05-22T07:19:41.986Z,12.13
2023-05-22T07:22:11.671Z,11.77
2023-05-22T07:24:41.553Z,11.52
2023-05-22T07:27:11.282Z,11.20
2023-05-22T07:29:41.030Z,12.13
2023-05-22T07:32:10.914Z,9.63
2023-05-22T07:34:40.724Z,9.88
2023-05-22T07:37:13.962Z,10.68
2023-05-22T07:39:44.020Z,9.10
2023-05-22T07:42:16.145Z,9.63
2023-05-22T07:44:45.786Z,9.82
2023-05-22T07:47:15.487Z,9.27
2023-05-22T07:49:45.372Z,11.73
2023-05-22T07:52:15.051Z,10.90
2023-05-22T07:54:45.532Z,9.63
2023-05-22T07:57:15.682Z,7.90
2023-05-22T07:59:45.667Z,7.38
2023-05-22T08:02:15.794Z,8.40
2023-05-22T08:04:46.169Z,7.88
2023-05-22T08:07:15.949Z,8.93
2023-05-22T08:09:47.671Z,9.68
2023-05-22T08:12:17.334Z,10.90
2023-05-22T08:14:47.080Z,9.93
2023-05-22T08:17:16.815Z,10.30
2023-05-22T08:19:46.737Z,9.00
2023-05-22T08:22:16.500Z,8.57
2023-05-22T08:24:46.573Z,9.50
2023-05-22T08:27:16.314Z,12.85
2023-05-22T08:29:46.039Z,12.82
2023-05-22T08:32:15.926Z,13.40
2023-05-22T08:34:47.677Z,16.25
2023-05-22T08:37:17.445Z,17.98
2023-05-22T08:39:47.056Z,19.15
2023-05-22T08:42:16.926Z,16.80
2023-05-22T08:44:47.066Z,14.82
2023-05-22T08:47:17.571Z,18.83
2023-05-22T08:49:53.651Z,21.58
2023-05-22T08:52:35.650Z,18.35
2023-05-22T08:55:09.331Z,20.55
2023-05-22T08:57:39.453Z,19.92
2023-05-22T09:00:09.934Z,21.33
2023-05-22T09:02:40.967Z,18.10
2023-05-22T09:05:11.433Z,16.60
2023-05-22T09:07:42.370Z,20.80
2023-05-22T09:10:12.268Z,18.23
2023-05-22T09:13:10.436Z,20.27
2023-05-22T09:15:40.444Z,19.48
2023-05-22T09:18:10.066Z,17.40
2023-05-22T09:20:41.044Z,16.50
2023-05-22T09:23:19.375Z,15.48
2023-05-22T09:25:49.292Z,17.58
2023-05-22T09:28:18.928Z,15.82
2023-05-22T09:30:52.539Z,15.70
2023-05-22T09:33:24.259Z,18.83
2023-05-22T09:35:57.477Z,18.35
2023-05-22T09:38:32.376Z,15.45
2023-05-22T09:41:02.136Z,15.88
2023-05-22T09:43:31.782Z,16.20
2023-05-22T09:46:08.169Z,16.13
2023-05-22T09:48:38.908Z,16.40
2023-05-22T09:51:10.037Z,17.23
2023-05-22T09:53:42.272Z,18.00
2023-05-22T09:56:24.000Z,15.73
2023-05-22T09:59:01.856Z,16.40
2023-05-22T10:01:32.664Z,18.73
2023-05-22T10:04:03.827Z,17.00
2023-05-22T10:06:36.258Z,18.73
2023-05-22T10:09:09.146Z,17.05
2023-05-22T10:11:40.035Z,18.45
2023-05-22T10:14:11.229Z,20.98
2023-05-22T10:16:43.263Z,15.98
2023-05-22T10:19:14.932Z,15.55
2023-05-22T10:21:44.953Z,16.63
2023-05-22T10:24:15.417Z,15.40
2023-05-22T10:26:46.225Z,17.77
2023-05-22T10:29:35.658Z,17.17
2023-05-22T10:32:17.750Z,15.23
2023-05-22T10:35:23.698Z,15.18
2023-05-22T10:37:58.127Z,16.90
2023-05-22T10:40:36.219Z,18.02
2023-05-22T10:43:06.258Z,16.10
2023-05-22T10:45:36.023Z,9.77
2023-05-22T10:48:10.511Z,9.85
2023-05-22T10:50:41.291Z,10.27
2023-05-22T10:53:29.420Z,13.50
2023-05-22T10:56:03.869Z,9.13
2023-05-22T10:58:39.121Z,9.38
2023-05-22T11:01:16.869Z,9.27
2023-05-22T11:04:08.785Z,10.25
2023-05-22T11:06:43.723Z,7.25
2023-05-22T11:09:35.534Z,7.03
2023-05-22T11:12:28.014Z,6.90
2023-05-22T11:17:53.254Z,5.57
2023-05-22T11:20:32.423Z,6.10
2023-05-22T11:23:07.202Z,7.05
2023-05-22T11:25:39.043Z,6.60
2023-05-22T11:28:09.636Z,6.38
2023-05-22T11:30:40.478Z,6.20
2023-05-22T11:33:10.399Z,6.88
2023-05-22T11:35:40.657Z,6.13
2023-05-22T11:38:10.963Z,6.90
2023-05-22T11:40:40.903Z,7.07
2023-05-22T11:43:10.783Z,7.60
2023-05-22T11:45:42.140Z,5.40
2023-05-22T11:48:15.369Z,7.47
2023-05-22T11:50:46.400Z,6.57
2023-05-22T11:53:16.484Z,8.00
2023-05-22T11:55:46.165Z,6.65
2023-05-22T11:58:15.756Z,6.28
2023-05-22T12:00:45.793Z,5.90
2023-05-22T12:03:15.749Z,6.50
2023-05-22T12:05:48.597Z,7.38
2023-05-22T12:08:18.615Z,6.43
2023-05-22T12:10:55.773Z,6.72
2023-05-22T12:13:30.858Z,6.78
2023-05-22T12:16:04.398Z,6.65
2023-05-22T12:21:09.662Z,6.50
2023-05-22T12:23:49.433Z,6.45
2023-05-22T12:26:19.392Z,6.88
2023-05-22T12:28:49.039Z,5.43
2023-05-22T12:31:25.278Z,8.27
2023-05-22T12:33:58.990Z,6.80
2023-05-22T12:36:54.519Z,6.18
2023-05-22T12:39:24.242Z,6.32
2023-05-22T12:41:53.958Z,6.78
2023-05-22T12:44:23.735Z,6.55
2023-05-22T12:46:55.028Z,5.25
2023-05-22T12:49:24.799Z,8.32
2023-05-22T12:51:54.503Z,7.85
2023-05-22T12:54:24.168Z,6.53
2023-05-22T12:56:53.792Z,6.88
2023-05-22T12:59:23.413Z,7.65
2023-05-22T13:01:53.296Z,7.32
2023-05-22T13:04:23.231Z,7.75
2023-05-22T13:06:52.916Z,8.52
2023-05-22T13:09:22.799Z,8.77
2023-05-22T13:11:52.549Z,9.10
2023-05-22T13:14:22.834Z,9.13
2023-05-22T13:16:52.535Z,9.52
2023-05-22T13:19:22.200Z,10.10
2023-05-22T13:21:51.982Z,9.38
2023-05-22T13:24:21.663Z,9.10
2023-05-22T13:26:51.359Z,9.60
2023-05-22T13:29:21.010Z,8.23
2023-05-22T13:31:50.725Z,8.50
2023-05-22T13:34:20.522Z,9.00
2023-05-22T13:36:50.425Z,8.75
2023-05-22T13:39:20.171Z,9.18
2023-05-22T13:41:50.151Z,8.82
2023-05-22T13:44:19.940Z,9.60
2023-05-22T13:46:49.877Z,8.32
2023-05-22T13:49:19.754Z,9.52
2023-05-22T13:51:49.518Z,8.52
2023-05-22T13:54:19.216Z,8.90
2023-05-22T13:56:48.967Z,9.40
2023-05-22T13:59:18.674Z,8.32
2023-05-22T14:01:48.409Z,9.15
2023-05-22T14:04:18.110Z,10.50
2023-05-22T14:06:47.841Z,9.10
2023-05-22T14:09:17.646Z,8.48
2023-05-22T14:11:47.565Z,9.50
2023-05-22T14:14:17.297Z,9.57
2023-05-22T14:16:47.046Z,8.82
2023-05-22T14:19:16.940Z,8.60
2023-05-22T14:21:47.480Z,9.48
2023-05-22T14:24:17.555Z,9.93
2023-05-22T14:26:47.658Z,12.77
2023-05-22T14:29:17.548Z,11.35
2023-05-22T14:31:51.933Z,9.30
2023-05-22T14:34:21.867Z,8.73
2023-05-22T14:36:51.489Z,10.25
2023-05-22T14:39:21.207Z,8.63
2023-05-22T14:41:50.865Z,9.85
2023-05-22T14:44:21.048Z,8.15
2023-05-22T14:46:52.509Z,8.63
2023-05-22T14:49:22.485Z,9.07
2023-05-22T14:51:52.186Z,11.00
2023-05-22T14:54:23.158Z,10.40
2023-05-22T14:56:52.937Z,10.20
2023-05-22T14:59:23.005Z,9.27
2023-05-22T15:01:53.690Z,9.35
2023-05-22T15:04:24.198Z,11.50
2023-05-22T15:06:53.884Z,9.30
2023-05-22T15:09:23.559Z,11.48
2023-05-22T15:11:53.303Z,10.50
2023-05-22T15:14:23.116Z,8.15
2023-05-22T15:16:52.758Z,8.50
2023-05-22T15:19:22.624Z,8.50
2023-05-22T15:21:52.385Z,9.20
2023-05-22T15:24:22.282Z,10.48
2023-05-22T15:26:52.251Z,9.15
2023-05-22T15:29:22.361Z,11.20
2023-05-22T15:31:52.040Z,8.40
2023-05-22T15:34:21.761Z,9.75
2023-05-22T15:36:51.474Z,9.00
2023-05-22T15:39:21.164Z,8.80
2023-05-22T15:42:02.184Z,10.00
2023-05-22T15:44:35.274Z,9.05
2023-05-22T15:47:04.961Z,9.68
2023-05-22T15:49:34.681Z,10.65
2023-05-22T15:52:05.128Z,9.25
2023-05-22T15:54:34.753Z,9.23
2023-05-22T15:57:04.370Z,10.60
2023-05-22T15:59:34.030Z,9.15
2023-05-22T16:02:03.733Z,9.50
2023-05-22T16:04:33.514Z,9.43
2023-05-22T16:07:03.236Z,10.95
2023-05-22T16:09:33.090Z,11.65
2023-05-22T16:12:02.813Z,10.35
2023-05-22T16:14:33.089Z,11.00
2023-05-22T16:17:02.827Z,9.63
2023-05-22T16:19:34.984Z,11.00
2023-05-22T16:22:04.988Z,10.38
2023-05-22T16:24:34.745Z,9.88
2023-05-22T16:27:04.788Z,10.15
2023-05-22T16:29:34.630Z,9.40
2023-05-22T16:32:05.275Z,10.13
2023-05-22T16:34:35.567Z,9.63
2023-05-22T16:37:05.212Z,9.60
2023-05-22T16:39:34.909Z,8.60
2023-05-22T16:42:04.727Z,9.48
2023-05-22T16:44:34.448Z,9.52
2023-05-22T16:47:04.196Z,9.80
2023-05-22T16:49:33.890Z,9.25
2023-05-22T16:52:03.578Z,9.43
2023-05-22T16:54:33.321Z,10.20
2023-05-22T16:57:03.370Z,11.07
2023-05-22T16:59:33.466Z,10.60
2023-05-22T17:02:03.362Z,10.57
2023-05-22T17:04:33.582Z,10.05
2023-05-22T17:07:03.364Z,11.27
2023-05-22T17:09:34.715Z,10.88
2023-05-22T17:12:04.496Z,11.20
2023-05-22T17:14:35.916Z,9.55
2023-05-22T17:17:05.772Z,9.68
2023-05-22T17:19:35.512Z,10.80
2023-05-22T17:22:05.322Z,10.48
2023-05-22T17:24:35.606Z,10.55
2023-05-22T17:27:05.343Z,10.13
2023-05-22T17:29:34.997Z,9.70
2023-05-22T17:32:06.988Z,9.63
2023-05-22T17:34:37.648Z,9.55
2023-05-22T17:37:07.629Z,9.48
2023-05-22T17:39:37.308Z,9.73
2023-05-22T17:42:07.661Z,10.35
2023-05-22T17:44:38.316Z,12.45
2023-05-22T17:47:08.258Z,10.00
2023-05-22T17:49:39.204Z,10.55
2023-05-22T17:52:10.121Z,10.55
2023-05-22T17:54:39.836Z,9.32
2023-05-22T17:59:40.326Z,11.15
2023-05-22T18:02:11.231Z,10.40
2023-05-22T18:04:40.916Z,10.85
2023-05-22T18:07:10.607Z,10.20
2023-05-22T18:09:40.433Z,11.25
2023-05-22T18:12:15.179Z,11.15
2023-05-22T18:17:23.262Z,9.88
2023-05-22T18:19:53.054Z,10.07
2023-05-22T18:22:23.480Z,11.52
2023-05-22T18:24:53.198Z,10.20
2023-05-22T18:27:22.912Z,11.10
2023-05-22T18:29:53.357Z,11.90
2023-05-22T18:32:25.952Z,11.63
2023-05-22T18:34:55.673Z,10.10
2023-05-22T18:37:25.471Z,11.73
2023-05-22T18:39:55.133Z,10.10
2023-05-22T18:42:25.249Z,10.32
2023-05-22T18:44:54.991Z,10.90
2023-05-22T18:47:24.671Z,9.93
2023-05-22T18:49:54.415Z,9.23
2023-05-22T18:52:24.098Z,10.25
2023-05-22T18:54:53.757Z,11.02
2023-05-22T18:57:23.464Z,10.43
2023-05-22T18:59:53.300Z,10.55
2023-05-22T19:02:23.498Z,11.45
2023-05-22T19:04:53.485Z,10.63
2023-05-22T19:07:23.467Z,15.60
2023-05-22T19:09:53.293Z,11.55
2023-05-22T19:12:23.068Z,10.70
2023-05-22T19:14:54.113Z,11.35
2023-05-22T19:17:23.842Z,10.07
2023-05-22T19:19:53.549Z,11.38
2023-05-22T19:22:23.245Z,10.35
2023-05-22T19:24:53.090Z,10.68
2023-05-22T19:27:22.756Z,10.63
2023-05-22T19:29:52.490Z,10.07
2023-05-22T19:32:22.275Z,10.38
2023-05-22T19:34:52.351Z,10.35
2023-05-22T19:37:22.114Z,12.68
2023-05-22T19:39:51.873Z,12.38
2023-05-22T19:42:21.573Z,11.82
2023-05-22T19:44:51.296Z,10.20
2023-05-22T19:47:21.003Z,10.25
2023-05-22T19:49:50.628Z,9.95
2023-05-22T19:52:20.371Z,9.60
2023-05-22T19:54:50.033Z,9.55
2023-05-22T19:57:20.962Z,8.88
2023-05-22T19:59:50.694Z,9.75
2023-05-22T20:02:20.410Z,11.60
2023-05-22T20:04:52.186Z,10.98
2023-05-22T20:07:21.996Z,11.05
2023-05-22T20:09:51.747Z,11.13
2023-05-22T20:12:21.479Z,11.52
2023-05-22T20:14:51.284Z,10.75
2023-05-22T20:17:24.051Z,10.80
2023-05-22T20:19:53.774Z,11.30
2023-05-22T20:22:23.490Z,12.38
2023-05-22T20:24:53.144Z,11.13
2023-05-22T20:27:22.896Z,11.65
2023-05-22T20:29:52.806Z,11.15
2023-05-22T20:32:22.791Z,12.10
2023-05-22T20:34:53.869Z,11.88
2023-05-22T20:37:24.709Z,11.98
2023-05-22T20:39:54.424Z,11.73
2023-05-22T20:42:24.439Z,12.75
2023-05-22T20:44:54.288Z,12.60
2023-05-22T20:47:23.954Z,12.60
2023-05-22T20:49:53.678Z,12.02
2023-05-22T20:52:23.849Z,12.80
2023-05-22T20:54:53.528Z,13.75
2023-05-22T20:57:23.214Z,12.13
2023-05-22T20:59:53.207Z,11.82
2023-05-22T21:02:23.007Z,11.77
2023-05-22T21:04:52.807Z,13.40
2023-05-22T21:07:22.479Z,12.75
2023-05-22T21:09:52.319Z,11.90
2023-05-22T21:12:22.259Z,11.57
2023-05-22T21:14:52.038Z,11.50
2023-05-22T21:17:21.828Z,11.85
2023-05-22T21:19:51.666Z,12.27
2023-05-22T21:22:21.494Z,11.65
2023-05-22T21:24:51.182Z,10.68
2023-05-22T21:27:21.064Z,11.13
2023-05-22T21:29:50.973Z,11.90
2023-05-22T21:32:20.669Z,11.30
2023-05-22T21:34:50.370Z,11.10
2023-05-22T21:37:20.001Z,11.43
2023-05-22T21:39:49.716Z,10.35
2023-05-22T21:42:19.892Z,11.63
2023-05-22T21:44:49.534Z,11.30
2023-05-22T21:47:19.227Z,11.10
2023-05-22T21:49:48.822Z,10.07
2023-05-22T21:52:18.530Z,12.77
2023-05-22T21:54:48.160Z,11.43
2023-05-22T21:57:17.803Z,10.00
2023-05-22T21:59:48.898Z,10.85
2023-05-22T22:02:18.941Z,10.13
2023-05-22T22:04:48.573Z,11.13
2023-05-22T22:07:18.161Z,10.05
2023-05-22T22:09:47.824Z,12.02
2023-05-22T22:12:17.652Z,10.88
2023-05-22T22:14:47.335Z,10.43
2023-05-22T22:17:18.257Z,10.00
2023-05-22T22:19:47.861Z,10.75
2023-05-22T22:22:17.668Z,11.68
2023-05-22T22:24:48.215Z,11.05
2023-05-22T22:27:18.129Z,11.50
2023-05-22T22:29:47.873Z,11.32
2023-05-22T22:32:17.584Z,12.57
2023-05-22T22:34:47.490Z,11.55
2023-05-22T22:37:17.818Z,10.02
2023-05-22T22:39:47.432Z,10.77
2023-05-22T22:42:17.441Z,11.15
2023-05-22T22:44:47.140Z,10.05
2023-05-22T22:47:16.789Z,10.05
2023-05-22T22:49:46.408Z,10.73
2023-05-22T22:52:16.086Z,11.43
2023-05-22T22:54:46.101Z,11.45
2023-05-22T22:57:15.841Z,9.23
2023-05-22T22:59:45.403Z,10.73
2023-05-22T23:02:15.027Z,9.98
2023-05-22T23:04:44.727Z,10.57
2023-05-22T23:07:14.508Z,9.20
2023-05-22T23:09:44.119Z,9.57
2023-05-22T23:12:14.176Z,9.93
2023-05-22T23:14:43.774Z,11.52
2023-05-22T23:17:13.476Z,10.68
2023-05-22T23:19:43.421Z,9.35
2023-05-22T23:22:13.054Z,9.15
2023-05-22T23:24:42.696Z,9.32
2023-05-22T23:27:12.545Z,9.25
2023-05-22T23:29:42.280Z,9.15
2023-05-22T23:32:14.451Z,9.02
2023-05-22T23:34:44.738Z,8.05
2023-05-22T23:37:14.414Z,9.05
2023-05-22T23:39:44.503Z,9.13
2023-05-22T23:42:14.529Z,7.63
2023-05-22T23:44:44.182Z,9.23
2023-05-22T23:47:13.803Z,10.27
2023-05-22T23:49:43.432Z,8.93
2023-05-22T23:52:13.828Z,8.45
2023-05-22T23:54:43.596Z,8.68
2023-05-22T23:57:13.204Z,7.35
2023-05-22T23:59:43.247Z,8.18
